sensor_id;sensor_type;location;lat;lon;timestamp;temperature;humidity
21540;DHT22;10931;52.164;5.518;2023-05-10T00:02:25;23.00;62.00
21540;DHT22;10931;52.164;5.518;2023-05-10T00:04:50;23.00;61.90
21540;DHT22;10931;52.164;5.518;2023-05-10T00:07:19;23.00;61.90
21540;DHT22;10931;52.164;5.518;2023-05-10T00:09:45;23.00;61.90
21540;DHT22;10931;52.164;5.518;2023-05-10T00:12:10;23.00;61.90
21540;DHT22;10931;52.164;5.518;2023-05-10T00:14:36;23.00;61.90
21540;DHT22;10931;52.164;5.518;2023-05-10T00:17:10;23.00;61.90
21540;DHT22;10931;52.164;5.518;2023-05-10T00:19:35;23.00;61.90
21540;DHT22;10931;52.164;5.518;2023-05-10T00:22:02;23.00;61.90
21540;DHT22;10931;52.164;5.518;2023-05-10T00:24:28;23.00;61.90
21540;DHT22;10931;52.164;5.518;2023-05-10T00:26:54;23.00;61.90
21540;DHT22;10931;52.164;5.518;2023-05-10T00:29:19;22.90;61.90
21540;DHT22;10931;52.164;5.518;2023-05-10T00:31:45;23.00;61.90
21540;DHT22;10931;52.164;5.518;2023-05-10T00:34:18;23.00;61.90
21540;DHT22;10931;52.164;5.518;2023-05-10T00:36:44;22.90;61.90
21540;DHT22;10931;52.164;5.518;2023-05-10T00:39:09;22.90;61.90
21540;DHT22;10931;52.164;5.518;2023-05-10T00:41:35;22.90;61.90
21540;DHT22;10931;52.164;5.518;2023-05-10T00:44:04;22.90;61.90
21540;DHT22;10931;52.164;5.518;2023-05-10T00:46:33;22.90;61.90
21540;DHT22;10931;52.164;5.518;2023-05-10T00:48:59;22.90;61.90
21540;DHT22;10931;52.164;5.518;2023-05-10T00:51:25;22.90;61.90
21540;DHT22;10931;52.164;5.518;2023-05-10T00:53:53;22.90;61.90
21540;DHT22;10931;52.164;5.518;2023-05-10T00:56:20;22.90;61.90
21540;DHT22;10931;52.164;5.518;2023-05-10T00:58:48;22.90;61.90
21540;DHT22;10931;52.164;5.518;2023-05-10T01:01:14;22.90;61.90
21540;DHT22;10931;52.164;5.518;2023-05-10T01:03:41;22.90;61.90
21540;DHT22;10931;52.164;5.518;2023-05-10T01:06:07;22.90;61.90
21540;DHT22;10931;52.164;5.518;2023-05-10T01:08:34;22.90;61.90
21540;DHT22;10931;52.164;5.518;2023-05-10T01:11:00;22.90;61.90
21540;DHT22;10931;52.164;5.518;2023-05-10T01:13:34;22.80;61.90
21540;DHT22;10931;52.164;5.518;2023-05-10T01:16:05;22.80;61.90
21540;DHT22;10931;52.164;5.518;2023-05-10T01:18:37;22.80;61.90
21540;DHT22;10931;52.164;5.518;2023-05-10T01:21:38;22.80;61.90
21540;DHT22;10931;52.164;5.518;2023-05-10T01:30:17;22.80;61.90
21540;DHT22;10931;52.164;5.518;2023-05-10T01:32:51;22.80;61.90
21540;DHT22;10931;52.164;5.518;2023-05-10T01:38:28;22.80;61.90
21540;DHT22;10931;52.164;5.518;2023-05-10T01:43:30;22.80;61.90
21540;DHT22;10931;52.164;5.518;2023-05-10T01:46:07;22.80;61.90
21540;DHT22;10931;52.164;5.518;2023-05-10T01:48:47;22.80;61.90
21540;DHT22;10931;52.164;5.518;2023-05-10T01:51:21;22.80;61.90
21540;DHT22;10931;52.164;5.518;2023-05-10T01:54:02;22.80;61.90
21540;DHT22;10931;52.164;5.518;2023-05-10T01:56:33;22.80;61.90
21540;DHT22;10931;52.164;5.518;2023-05-10T01:59:00;22.70;61.90
21540;DHT22;10931;52.164;5.518;2023-05-10T02:01:30;22.80;61.90
21540;DHT22;10931;52.164;5.518;2023-05-10T02:04:08;22.80;61.90
21540;DHT22;10931;52.164;5.518;2023-05-10T02:06:36;22.80;61.90
21540;DHT22;10931;52.164;5.518;2023-05-10T02:09:04;22.80;61.90
21540;DHT22;10931;52.164;5.518;2023-05-10T02:11:31;22.70;61.90
21540;DHT22;10931;52.164;5.518;2023-05-10T02:13:58;22.80;61.90
21540;DHT22;10931;52.164;5.518;2023-05-10T02:16:26;22.70;61.90
21540;DHT22;10931;52.164;5.518;2023-05-10T02:18:53;22.70;61.90
21540;DHT22;10931;52.164;5.518;2023-05-10T02:21:21;22.70;61.90
21540;DHT22;10931;52.164;5.518;2023-05-10T02:23:50;22.70;61.90
21540;DHT22;10931;52.164;5.518;2023-05-10T02:26:18;22.70;61.90
21540;DHT22;10931;52.164;5.518;2023-05-10T02:28:47;22.70;61.90
21540;DHT22;10931;52.164;5.518;2023-05-10T02:31:14;22.70;61.90
21540;DHT22;10931;52.164;5.518;2023-05-10T02:33:41;22.70;61.90
21540;DHT22;10931;52.164;5.518;2023-05-10T02:36:08;22.70;61.90
21540;DHT22;10931;52.164;5.518;2023-05-10T02:38:36;22.70;61.90
21540;DHT22;10931;52.164;5.518;2023-05-10T02:41:14;22.70;61.90
21540;DHT22;10931;52.164;5.518;2023-05-10T02:43:44;22.70;61.90
21540;DHT22;10931;52.164;5.518;2023-05-10T02:46:27;22.70;62.00
21540;DHT22;10931;52.164;5.518;2023-05-10T02:48:53;22.70;61.90
21540;DHT22;10931;52.164;5.518;2023-05-10T02:51:20;22.70;61.90
21540;DHT22;10931;52.164;5.518;2023-05-10T02:53:49;22.70;61.90
21540;DHT22;10931;52.164;5.518;2023-05-10T02:56:25;22.70;61.90
21540;DHT22;10931;52.164;5.518;2023-05-10T02:58:51;22.70;61.90
21540;DHT22;10931;52.164;5.518;2023-05-10T03:01:17;22.70;61.90
21540;DHT22;10931;52.164;5.518;2023-05-10T03:03:43;22.70;61.90
21540;DHT22;10931;52.164;5.518;2023-05-10T03:06:10;22.70;61.90
21540;DHT22;10931;52.164;5.518;2023-05-10T03:08:36;22.60;61.80
21540;DHT22;10931;52.164;5.518;2023-05-10T03:11:22;22.70;61.90
21540;DHT22;10931;52.164;5.518;2023-05-10T03:14:42;22.60;61.90
21540;DHT22;10931;52.164;5.518;2023-05-10T03:16:57;22.60;61.90
21540;DHT22;10931;52.164;5.518;2023-05-10T03:19:55;22.60;61.90
21540;DHT22;10931;52.164;5.518;2023-05-10T03:22:49;22.60;61.90
21540;DHT22;10931;52.164;5.518;2023-05-10T03:25:16;22.60;61.90
21540;DHT22;10931;52.164;5.518;2023-05-10T03:27:44;22.60;61.90
21540;DHT22;10931;52.164;5.518;2023-05-10T03:30:12;22.60;61.90
21540;DHT22;10931;52.164;5.518;2023-05-10T03:32:38;22.60;61.90
21540;DHT22;10931;52.164;5.518;2023-05-10T03:35:11;22.60;61.90
21540;DHT22;10931;52.164;5.518;2023-05-10T03:37:40;22.60;61.90
21540;DHT22;10931;52.164;5.518;2023-05-10T03:40:06;22.60;61.90
21540;DHT22;10931;52.164;5.518;2023-05-10T03:42:32;22.60;61.90
21540;DHT22;10931;52.164;5.518;2023-05-10T03:44:58;22.60;61.90
21540;DHT22;10931;52.164;5.518;2023-05-10T03:47:23;22.60;61.90
21540;DHT22;10931;52.164;5.518;2023-05-10T03:49:49;22.60;61.90
21540;DHT22;10931;52.164;5.518;2023-05-10T03:52:15;22.60;61.90
21540;DHT22;10931;52.164;5.518;2023-05-10T03:54:41;22.60;61.90
21540;DHT22;10931;52.164;5.518;2023-05-10T03:57:12;22.60;61.90
21540;DHT22;10931;52.164;5.518;2023-05-10T03:59:37;22.60;61.90
21540;DHT22;10931;52.164;5.518;2023-05-10T04:02:03;22.60;61.90
21540;DHT22;10931;52.164;5.518;2023-05-10T04:04:29;22.50;61.80
21540;DHT22;10931;52.164;5.518;2023-05-10T04:06:54;22.50;61.90
21540;DHT22;10931;52.164;5.518;2023-05-10T04:09:20;22.60;61.90
21540;DHT22;10931;52.164;5.518;2023-05-10T04:11:46;22.60;61.90
21540;DHT22;10931;52.164;5.518;2023-05-10T04:14:11;22.50;61.80
21540;DHT22;10931;52.164;5.518;2023-05-10T04:16:37;22.50;61.80
21540;DHT22;10931;52.164;5.518;2023-05-10T04:19:03;22.50;61.90
21540;DHT22;10931;52.164;5.518;2023-05-10T04:21:29;22.50;61.90
21540;DHT22;10931;52.164;5.518;2023-05-10T04:23:55;22.50;61.80
21540;DHT22;10931;52.164;5.518;2023-05-10T04:26:21;22.50;61.90
21540;DHT22;10931;52.164;5.518;2023-05-10T04:28:49;22.50;61.90
21540;DHT22;10931;52.164;5.518;2023-05-10T04:31:14;22.50;61.80
21540;DHT22;10931;52.164;5.518;2023-05-10T04:33:49;22.50;61.80
21540;DHT22;10931;52.164;5.518;2023-05-10T04:36:15;22.50;61.80
21540;DHT22;10931;52.164;5.518;2023-05-10T04:38:41;22.50;61.80
21540;DHT22;10931;52.164;5.518;2023-05-10T04:41:07;22.50;61.90
21540;DHT22;10931;52.164;5.518;2023-05-10T04:43:36;22.50;61.90
21540;DHT22;10931;52.164;5.518;2023-05-10T04:46:02;22.50;61.90
21540;DHT22;10931;52.164;5.518;2023-05-10T04:48:28;22.50;61.90
21540;DHT22;10931;52.164;5.518;2023-05-10T04:50:54;22.40;61.80
21540;DHT22;10931;52.164;5.518;2023-05-10T04:53:19;22.40;61.80
21540;DHT22;10931;52.164;5.518;2023-05-10T04:55:45;22.40;61.80
21540;DHT22;10931;52.164;5.518;2023-05-10T04:58:12;22.40;61.90
21540;DHT22;10931;52.164;5.518;2023-05-10T05:00:37;22.50;61.90
21540;DHT22;10931;52.164;5.518;2023-05-10T05:03:03;22.40;61.80
21540;DHT22;10931;52.164;5.518;2023-05-10T05:05:32;22.40;61.80
21540;DHT22;10931;52.164;5.518;2023-05-10T05:07:57;22.40;61.80
21540;DHT22;10931;52.164;5.518;2023-05-10T05:10:23;22.40;61.80
21540;DHT22;10931;52.164;5.518;2023-05-10T05:12:49;22.40;61.90
21540;DHT22;10931;52.164;5.518;2023-05-10T05:15:14;22.40;61.80
21540;DHT22;10931;52.164;5.518;2023-05-10T05:17:42;22.40;62.70
21540;DHT22;10931;52.164;5.518;2023-05-10T05:20:08;22.40;61.80
21540;DHT22;10931;52.164;5.518;2023-05-10T05:22:35;22.40;61.80
21540;DHT22;10931;52.164;5.518;2023-05-10T05:25:04;22.40;61.80
21540;DHT22;10931;52.164;5.518;2023-05-10T05:27:31;22.40;61.80
21540;DHT22;10931;52.164;5.518;2023-05-10T05:29:57;22.40;61.90
21540;DHT22;10931;52.164;5.518;2023-05-10T05:32:24;22.40;61.90
21540;DHT22;10931;52.164;5.518;2023-05-10T05:34:50;22.40;61.80
21540;DHT22;10931;52.164;5.518;2023-05-10T05:37:18;22.40;61.90
21540;DHT22;10931;52.164;5.518;2023-05-10T05:39:44;22.40;61.90
21540;DHT22;10931;52.164;5.518;2023-05-10T05:42:11;22.40;61.90
21540;DHT22;10931;52.164;5.518;2023-05-10T05:44:40;22.40;61.90
21540;DHT22;10931;52.164;5.518;2023-05-10T05:47:06;22.40;61.90
21540;DHT22;10931;52.164;5.518;2023-05-10T05:49:32;22.30;61.80
21540;DHT22;10931;52.164;5.518;2023-05-10T05:52:04;22.30;61.80
21540;DHT22;10931;52.164;5.518;2023-05-10T05:54:30;22.30;61.80
21540;DHT22;10931;52.164;5.518;2023-05-10T05:56:57;22.30;61.80
21540;DHT22;10931;52.164;5.518;2023-05-10T05:59:23;22.30;61.80
21540;DHT22;10931;52.164;5.518;2023-05-10T06:01:49;22.30;61.80
21540;DHT22;10931;52.164;5.518;2023-05-10T06:04:14;22.30;62.60
21540;DHT22;10931;52.164;5.518;2023-05-10T06:06:40;22.30;61.80
21540;DHT22;10931;52.164;5.518;2023-05-10T06:09:06;22.30;62.10
21540;DHT22;10931;52.164;5.518;2023-05-10T06:11:31;22.30;61.90
21540;DHT22;10931;52.164;5.518;2023-05-10T06:13:58;22.30;61.80
21540;DHT22;10931;52.164;5.518;2023-05-10T06:16:23;22.30;61.90
21540;DHT22;10931;52.164;5.518;2023-05-10T06:18:49;22.30;61.80
21540;DHT22;10931;52.164;5.518;2023-05-10T06:21:15;22.30;61.80
21540;DHT22;10931;52.164;5.518;2023-05-10T06:23:41;22.30;61.90
21540;DHT22;10931;52.164;5.518;2023-05-10T06:26:09;22.30;61.90
21540;DHT22;10931;52.164;5.518;2023-05-10T06:28:35;22.30;61.90
21540;DHT22;10931;52.164;5.518;2023-05-10T06:31:04;22.30;61.90
21540;DHT22;10931;52.164;5.518;2023-05-10T06:33:29;22.30;61.90
21540;DHT22;10931;52.164;5.518;2023-05-10T06:35:55;22.30;61.60
21540;DHT22;10931;52.164;5.518;2023-05-10T06:38:21;22.30;61.80
21540;DHT22;10931;52.164;5.518;2023-05-10T06:40:47;22.30;61.90
21540;DHT22;10931;52.164;5.518;2023-05-10T06:43:13;22.30;61.90
21540;DHT22;10931;52.164;5.518;2023-05-10T06:45:38;22.30;61.90
21540;DHT22;10931;52.164;5.518;2023-05-10T06:48:04;22.30;61.90
21540;DHT22;10931;52.164;5.518;2023-05-10T06:50:30;22.30;61.90
21540;DHT22;10931;52.164;5.518;2023-05-10T06:52:55;22.20;61.80
21540;DHT22;10931;52.164;5.518;2023-05-10T06:55:21;22.30;61.90
21540;DHT22;10931;52.164;5.518;2023-05-10T06:57:49;22.20;61.80
21540;DHT22;10931;52.164;5.518;2023-05-10T07:00:16;22.30;61.90
21540;DHT22;10931;52.164;5.518;2023-05-10T07:02:42;22.30;61.90
21540;DHT22;10931;52.164;5.518;2023-05-10T07:05:08;22.20;61.80
21540;DHT22;10931;52.164;5.518;2023-05-10T07:14:21;22.20;61.80
21540;DHT22;10931;52.164;5.518;2023-05-10T07:20:10;22.30;62.20
21540;DHT22;10931;52.164;5.518;2023-05-10T07:22:36;22.20;61.80
21540;DHT22;10931;52.164;5.518;2023-05-10T07:25:02;22.20;61.80
21540;DHT22;10931;52.164;5.518;2023-05-10T07:27:27;22.30;61.90
21540;DHT22;10931;52.164;5.518;2023-05-10T07:29:53;22.20;61.80
21540;DHT22;10931;52.164;5.518;2023-05-10T07:32:20;22.20;61.80
21540;DHT22;10931;52.164;5.518;2023-05-10T07:34:46;22.20;61.80
21540;DHT22;10931;52.164;5.518;2023-05-10T07:37:11;22.20;61.90
21540;DHT22;10931;52.164;5.518;2023-05-10T07:39:37;22.20;61.80
21540;DHT22;10931;52.164;5.518;2023-05-10T07:42:03;22.20;61.80
21540;DHT22;10931;52.164;5.518;2023-05-10T07:44:28;22.20;61.80
21540;DHT22;10931;52.164;5.518;2023-05-10T07:46:54;22.20;61.80
21540;DHT22;10931;52.164;5.518;2023-05-10T07:49:21;22.20;61.70
21540;DHT22;10931;52.164;5.518;2023-05-10T07:51:46;22.20;61.80
21540;DHT22;10931;52.164;5.518;2023-05-10T07:54:13;22.20;61.70
21540;DHT22;10931;52.164;5.518;2023-05-10T07:56:39;22.20;61.70
21540;DHT22;10931;52.164;5.518;2023-05-10T07:59:10;22.20;61.80
21540;DHT22;10931;52.164;5.518;2023-05-10T08:01:35;22.20;61.80
21540;DHT22;10931;52.164;5.518;2023-05-10T08:04:01;22.20;61.70
21540;DHT22;10931;52.164;5.518;2023-05-10T08:06:27;22.20;61.70
21540;DHT22;10931;52.164;5.518;2023-05-10T08:08:53;22.20;61.70
21540;DHT22;10931;52.164;5.518;2023-05-10T08:11:20;22.20;61.70
21540;DHT22;10931;52.164;5.518;2023-05-10T08:13:47;22.20;61.90
21540;DHT22;10931;52.164;5.518;2023-05-10T08:16:13;22.20;61.70
21540;DHT22;10931;52.164;5.518;2023-05-10T08:18:39;22.20;61.70
21540;DHT22;10931;52.164;5.518;2023-05-10T08:21:05;22.20;61.70
21540;DHT22;10931;52.164;5.518;2023-05-10T08:23:31;22.20;61.70
21540;DHT22;10931;52.164;5.518;2023-05-10T08:25:57;22.20;61.70
21540;DHT22;10931;52.164;5.518;2023-05-10T08:28:22;22.20;61.70
21540;DHT22;10931;52.164;5.518;2023-05-10T08:30:50;22.20;61.70
21540;DHT22;10931;52.164;5.518;2023-05-10T08:33:17;22.20;61.70
21540;DHT22;10931;52.164;5.518;2023-05-10T08:35:42;22.20;61.70
21540;DHT22;10931;52.164;5.518;2023-05-10T08:38:08;22.20;61.70
21540;DHT22;10931;52.164;5.518;2023-05-10T08:40:37;22.20;61.70
21540;DHT22;10931;52.164;5.518;2023-05-10T08:43:06;22.20;61.70
21540;DHT22;10931;52.164;5.518;2023-05-10T08:45:39;22.20;61.70
21540;DHT22;10931;52.164;5.518;2023-05-10T08:48:09;22.20;61.70
21540;DHT22;10931;52.164;5.518;2023-05-10T08:50:39;22.20;62.50
21540;DHT22;10931;52.164;5.518;2023-05-10T08:53:09;22.20;61.70
21540;DHT22;10931;52.164;5.518;2023-05-10T08:55:35;22.20;61.70
21540;DHT22;10931;52.164;5.518;2023-05-10T08:58:04;22.20;61.70
21540;DHT22;10931;52.164;5.518;2023-05-10T09:00:30;22.20;61.70
21540;DHT22;10931;52.164;5.518;2023-05-10T09:02:57;22.20;61.70
21540;DHT22;10931;52.164;5.518;2023-05-10T09:05:23;22.20;61.70
21540;DHT22;10931;52.164;5.518;2023-05-10T09:07:48;22.20;61.70
21540;DHT22;10931;52.164;5.518;2023-05-10T09:10:15;22.20;61.70
21540;DHT22;10931;52.164;5.518;2023-05-10T09:12:41;22.20;61.70
21540;DHT22;10931;52.164;5.518;2023-05-10T09:15:07;22.20;61.70
21540;DHT22;10931;52.164;5.518;2023-05-10T09:17:38;22.20;61.70
21540;DHT22;10931;52.164;5.518;2023-05-10T09:20:05;22.20;61.70
21540;DHT22;10931;52.164;5.518;2023-05-10T09:22:31;22.20;61.70
21540;DHT22;10931;52.164;5.518;2023-05-10T09:25:07;22.20;61.70
21540;DHT22;10931;52.164;5.518;2023-05-10T09:27:34;22.20;61.70
21540;DHT22;10931;52.164;5.518;2023-05-10T09:29:59;22.20;61.70
21540;DHT22;10931;52.164;5.518;2023-05-10T09:32:42;22.20;61.70
21540;DHT22;10931;52.164;5.518;2023-05-10T09:35:10;22.20;61.70
21540;DHT22;10931;52.164;5.518;2023-05-10T09:37:35;22.20;61.70
21540;DHT22;10931;52.164;5.518;2023-05-10T09:40:05;22.20;61.70
21540;DHT22;10931;52.164;5.518;2023-05-10T09:42:31;22.20;61.70
21540;DHT22;10931;52.164;5.518;2023-05-10T09:45:02;22.20;61.70
21540;DHT22;10931;52.164;5.518;2023-05-10T09:47:27;22.20;61.70
21540;DHT22;10931;52.164;5.518;2023-05-10T09:49:53;22.20;61.70
21540;DHT22;10931;52.164;5.518;2023-05-10T09:52:23;22.20;61.70
21540;DHT22;10931;52.164;5.518;2023-05-10T09:54:54;22.20;61.70
21540;DHT22;10931;52.164;5.518;2023-05-10T09:57:21;22.20;61.70
21540;DHT22;10931;52.164;5.518;2023-05-10T09:59:47;22.20;61.70
21540;DHT22;10931;52.164;5.518;2023-05-10T10:02:13;22.20;61.70
21540;DHT22;10931;52.164;5.518;2023-05-10T10:04:40;22.20;62.50
21540;DHT22;10931;52.164;5.518;2023-05-10T10:07:06;22.20;61.70
21540;DHT22;10931;52.164;5.518;2023-05-10T10:09:33;22.20;61.70
21540;DHT22;10931;52.164;5.518;2023-05-10T10:12:00;22.20;61.60
21540;DHT22;10931;52.164;5.518;2023-05-10T10:14:26;22.20;61.70
21540;DHT22;10931;52.164;5.518;2023-05-10T10:16:53;22.20;61.70
21540;DHT22;10931;52.164;5.518;2023-05-10T10:19:19;22.30;61.70
21540;DHT22;10931;52.164;5.518;2023-05-10T10:21:49;22.30;61.70
21540;DHT22;10931;52.164;5.518;2023-05-10T10:24:15;22.30;61.70
21540;DHT22;10931;52.164;5.518;2023-05-10T10:26:42;22.20;61.60
21540;DHT22;10931;52.164;5.518;2023-05-10T10:29:26;22.20;61.60
21540;DHT22;10931;52.164;5.518;2023-05-10T10:35:02;22.30;61.70
21540;DHT22;10931;52.164;5.518;2023-05-10T10:37:46;22.30;61.70
21540;DHT22;10931;52.164;5.518;2023-05-10T10:40:32;22.30;61.70
21540;DHT22;10931;52.164;5.518;2023-05-10T10:43:22;22.30;61.80
21540;DHT22;10931;52.164;5.518;2023-05-10T10:46:15;22.30;61.70
21540;DHT22;10931;52.164;5.518;2023-05-10T10:48:48;22.30;61.70
21540;DHT22;10931;52.164;5.518;2023-05-10T10:51:15;22.30;61.70
21540;DHT22;10931;52.164;5.518;2023-05-10T10:53:41;22.30;61.70
21540;DHT22;10931;52.164;5.518;2023-05-10T10:56:08;22.30;61.70
21540;DHT22;10931;52.164;5.518;2023-05-10T10:58:36;22.30;61.70
21540;DHT22;10931;52.164;5.518;2023-05-10T11:01:14;22.30;61.70
21540;DHT22;10931;52.164;5.518;2023-05-10T11:03:42;22.30;61.70
21540;DHT22;10931;52.164;5.518;2023-05-10T11:06:29;22.30;61.70
21540;DHT22;10931;52.164;5.518;2023-05-10T11:08:57;22.30;61.70
21540;DHT22;10931;52.164;5.518;2023-05-10T11:11:23;22.30;61.70
21540;DHT22;10931;52.164;5.518;2023-05-10T11:13:49;22.30;61.70
21540;DHT22;10931;52.164;5.518;2023-05-10T11:16:15;22.30;61.70
21540;DHT22;10931;52.164;5.518;2023-05-10T11:21:18;22.30;61.60
21540;DHT22;10931;52.164;5.518;2023-05-10T11:26:19;22.30;61.70
21540;DHT22;10931;52.164;5.518;2023-05-10T11:28:49;22.30;61.70
21540;DHT22;10931;52.164;5.518;2023-05-10T11:31:19;22.30;61.70
21540;DHT22;10931;52.164;5.518;2023-05-10T11:33:50;22.30;61.60
21540;DHT22;10931;52.164;5.518;2023-05-10T11:36:21;22.30;61.60
21540;DHT22;10931;52.164;5.518;2023-05-10T11:38:48;22.30;61.70
21540;DHT22;10931;52.164;5.518;2023-05-10T11:41:15;22.30;61.70
21540;DHT22;10931;52.164;5.518;2023-05-10T11:43:42;22.30;61.60
21540;DHT22;10931;52.164;5.518;2023-05-10T11:46:10;22.40;61.70
21540;DHT22;10931;52.164;5.518;2023-05-10T11:48:39;22.40;61.70
21540;DHT22;10931;52.164;5.518;2023-05-10T11:51:04;22.40;61.70
21540;DHT22;10931;52.164;5.518;2023-05-10T11:53:31;22.40;61.70
21540;DHT22;10931;52.164;5.518;2023-05-10T11:56:08;22.40;61.70
21540;DHT22;10931;52.164;5.518;2023-05-10T11:58:35;22.40;61.70
21540;DHT22;10931;52.164;5.518;2023-05-10T12:01:02;22.40;61.70
21540;DHT22;10931;52.164;5.518;2023-05-10T12:03:29;22.40;61.70
21540;DHT22;10931;52.164;5.518;2023-05-10T12:05:58;22.40;61.70
21540;DHT22;10931;52.164;5.518;2023-05-10T12:08:28;22.40;61.70
21540;DHT22;10931;52.164;5.518;2023-05-10T12:11:05;22.40;61.70
21540;DHT22;10931;52.164;5.518;2023-05-10T12:13:31;22.40;61.70
21540;DHT22;10931;52.164;5.518;2023-05-10T12:15:58;22.40;61.60
21540;DHT22;10931;52.164;5.518;2023-05-10T12:18:24;22.40;61.70
21540;DHT22;10931;52.164;5.518;2023-05-10T12:20:52;22.40;61.60
21540;DHT22;10931;52.164;5.518;2023-05-10T12:23:21;22.40;61.70
21540;DHT22;10931;52.164;5.518;2023-05-10T12:25:46;22.40;61.60
21540;DHT22;10931;52.164;5.518;2023-05-10T12:28:12;22.50;61.70
21540;DHT22;10931;52.164;5.518;2023-05-10T12:30:38;22.40;61.60
21540;DHT22;10931;52.164;5.518;2023-05-10T12:33:10;22.40;61.60
21540;DHT22;10931;52.164;5.518;2023-05-10T12:35:49;22.50;62.50
21540;DHT22;10931;52.164;5.518;2023-05-10T12:38:27;22.40;61.60
21540;DHT22;10931;52.164;5.518;2023-05-10T12:40:56;22.50;61.70
21540;DHT22;10931;52.164;5.518;2023-05-10T12:43:21;22.50;61.70
21540;DHT22;10931;52.164;5.518;2023-05-10T12:45:47;22.50;61.70
21540;DHT22;10931;52.164;5.518;2023-05-10T12:48:14;22.50;61.70
21540;DHT22;10931;52.164;5.518;2023-05-10T12:50:40;22.50;61.70
21540;DHT22;10931;52.164;5.518;2023-05-10T12:53:06;22.50;62.50
21540;DHT22;10931;52.164;5.518;2023-05-10T12:55:32;22.50;61.70
21540;DHT22;10931;52.164;5.518;2023-05-10T12:57:58;22.50;61.70
21540;DHT22;10931;52.164;5.518;2023-05-10T13:00:23;22.60;61.70
21540;DHT22;10931;52.164;5.518;2023-05-10T13:02:49;22.60;61.70
21540;DHT22;10931;52.164;5.518;2023-05-10T13:05:14;22.60;61.70
21540;DHT22;10931;52.164;5.518;2023-05-10T13:07:40;22.60;61.70
21540;DHT22;10931;52.164;5.518;2023-05-10T13:10:06;22.60;61.70
21540;DHT22;10931;52.164;5.518;2023-05-10T13:12:32;22.60;61.70
21540;DHT22;10931;52.164;5.518;2023-05-10T13:14:58;22.60;61.70
21540;DHT22;10931;52.164;5.518;2023-05-10T13:17:25;22.60;61.70
21540;DHT22;10931;52.164;5.518;2023-05-10T13:19:51;22.60;61.70
21540;DHT22;10931;52.164;5.518;2023-05-10T13:22:17;22.60;61.70
21540;DHT22;10931;52.164;5.518;2023-05-10T13:24:42;22.60;61.70
21540;DHT22;10931;52.164;5.518;2023-05-10T13:27:08;22.60;61.70
21540;DHT22;10931;52.164;5.518;2023-05-10T13:29:34;22.70;61.70
21540;DHT22;10931;52.164;5.518;2023-05-10T13:31:59;22.60;61.70
21540;DHT22;10931;52.164;5.518;2023-05-10T13:34:26;22.70;61.70
21540;DHT22;10931;52.164;5.518;2023-05-10T13:36:52;22.70;61.70
21540;DHT22;10931;52.164;5.518;2023-05-10T13:39:19;22.70;61.70
21540;DHT22;10931;52.164;5.518;2023-05-10T13:41:45;22.70;61.70
21540;DHT22;10931;52.164;5.518;2023-05-10T13:44:15;22.70;61.70
21540;DHT22;10931;52.164;5.518;2023-05-10T13:46:44;22.70;61.70
21540;DHT22;10931;52.164;5.518;2023-05-10T13:49:10;22.70;61.70
21540;DHT22;10931;52.164;5.518;2023-05-10T13:51:39;22.70;61.70
21540;DHT22;10931;52.164;5.518;2023-05-10T13:54:04;22.70;61.70
21540;DHT22;10931;52.164;5.518;2023-05-10T13:56:30;22.70;61.70
21540;DHT22;10931;52.164;5.518;2023-05-10T13:58:56;22.70;61.70
21540;DHT22;10931;52.164;5.518;2023-05-10T14:01:23;22.70;61.70
21540;DHT22;10931;52.164;5.518;2023-05-10T14:03:49;22.70;61.70
21540;DHT22;10931;52.164;5.518;2023-05-10T14:06:24;22.70;61.70
21540;DHT22;10931;52.164;5.518;2023-05-10T14:08:50;22.70;61.70
21540;DHT22;10931;52.164;5.518;2023-05-10T14:11:16;22.70;61.70
21540;DHT22;10931;52.164;5.518;2023-05-10T14:13:41;22.70;61.70
21540;DHT22;10931;52.164;5.518;2023-05-10T14:16:07;22.70;61.70
21540;DHT22;10931;52.164;5.518;2023-05-10T14:18:33;22.70;61.70
21540;DHT22;10931;52.164;5.518;2023-05-10T14:20:59;22.70;61.50
21540;DHT22;10931;52.164;5.518;2023-05-10T14:23:25;22.70;61.70
21540;DHT22;10931;52.164;5.518;2023-05-10T14:25:51;22.70;61.70
21540;DHT22;10931;52.164;5.518;2023-05-10T14:28:17;22.70;61.70
21540;DHT22;10931;52.164;5.518;2023-05-10T14:30:44;22.70;61.70
21540;DHT22;10931;52.164;5.518;2023-05-10T14:33:09;22.70;61.70
21540;DHT22;10931;52.164;5.518;2023-05-10T14:35:44;22.70;61.70
21540;DHT22;10931;52.164;5.518;2023-05-10T14:38:12;22.70;61.70
21540;DHT22;10931;52.164;5.518;2023-05-10T14:40:38;22.70;61.70
21540;DHT22;10931;52.164;5.518;2023-05-10T14:43:03;22.80;61.80
21540;DHT22;10931;52.164;5.518;2023-05-10T14:45:30;22.70;61.70
21540;DHT22;10931;52.164;5.518;2023-05-10T14:47:56;22.70;61.70
21540;DHT22;10931;52.164;5.518;2023-05-10T14:50:22;22.70;61.70
21540;DHT22;10931;52.164;5.518;2023-05-10T14:52:50;22.70;61.70
21540;DHT22;10931;52.164;5.518;2023-05-10T14:55:25;22.80;61.80
21540;DHT22;10931;52.164;5.518;2023-05-10T14:57:51;22.70;61.70
21540;DHT22;10931;52.164;5.518;2023-05-10T15:00:17;22.70;61.70
21540;DHT22;10931;52.164;5.518;2023-05-10T15:02:44;22.80;61.80
21540;DHT22;10931;52.164;5.518;2023-05-10T15:05:19;22.80;61.80
21540;DHT22;10931;52.164;5.518;2023-05-10T15:07:45;22.70;61.70
21540;DHT22;10931;52.164;5.518;2023-05-10T15:10:11;22.70;61.70
21540;DHT22;10931;52.164;5.518;2023-05-10T15:12:37;22.70;61.70
21540;DHT22;10931;52.164;5.518;2023-05-10T15:15:04;22.80;61.80
21540;DHT22;10931;52.164;5.518;2023-05-10T15:17:34;22.70;61.70
21540;DHT22;10931;52.164;5.518;2023-05-10T15:20:05;22.80;61.80
21540;DHT22;10931;52.164;5.518;2023-05-10T15:22:31;22.70;61.70
21540;DHT22;10931;52.164;5.518;2023-05-10T15:24:58;22.80;61.80
21540;DHT22;10931;52.164;5.518;2023-05-10T15:27:24;22.70;61.70
21540;DHT22;10931;52.164;5.518;2023-05-10T16:07:06;22.80;61.90
21540;DHT22;10931;52.164;5.518;2023-05-10T16:09:35;22.80;61.90
21540;DHT22;10931;52.164;5.518;2023-05-10T16:12:00;22.80;61.90
21540;DHT22;10931;52.164;5.518;2023-05-10T16:14:27;22.80;61.90
21540;DHT22;10931;52.164;5.518;2023-05-10T16:16:54;22.70;61.80
21540;DHT22;10931;52.164;5.518;2023-05-10T16:19:20;22.80;61.90
21540;DHT22;10931;52.164;5.518;2023-05-10T16:21:46;22.70;61.80
21540;DHT22;10931;52.164;5.518;2023-05-10T16:24:12;22.80;61.90
21540;DHT22;10931;52.164;5.518;2023-05-10T16:26:38;22.80;61.90
21540;DHT22;10931;52.164;5.518;2023-05-10T16:29:12;22.80;61.80
21540;DHT22;10931;52.164;5.518;2023-05-10T16:31:40;22.80;61.90
21540;DHT22;10931;52.164;5.518;2023-05-10T16:34:06;22.80;61.90
21540;DHT22;10931;52.164;5.518;2023-05-10T16:36:32;22.80;61.90
21540;DHT22;10931;52.164;5.518;2023-05-10T16:38:58;22.80;61.80
21540;DHT22;10931;52.164;5.518;2023-05-10T16:41:23;22.80;61.90
21540;DHT22;10931;52.164;5.518;2023-05-10T16:43:49;22.80;61.90